OIMC  Sarakhs  Airport

Sarakhs, Iran

Add Bookmark
ICAO OIMC
IATA CKT
Type Airport
Status Operational
Latitude
36° 30' 4" N
36.501202
Longitude
61° 3' 53" E
61.064899
Local (DST + 5) UTC (GMT + 4)
May 29, 2015 02:35 May 29, 2015 10:05
Sunrise-Sunset Local UTC
Begin Civil Twilight 04:38 00:08
Sunrise 05:08 00:38
Sunset 07:37 15:07
End Civil Twilight 08:07 15:37
VFR
VFR
MVFR
MVFR
IFR
VFR
LIFR
VFR
Unknown
Unavailable

Current Weather

METAR Observed VFR
OIMC 290800Z 00000KT CAVOK 38/03 Q1007 Fri, May 29, 2015 @ 08:00 UTC
(2 Hours, 5 Minutes ago)
Visual Flight Rules
Wind Visibility Conditions
Calm 10 km or more
  • No significant weather
Temperatures Readings Precipitation
Current Temp
38°C
100°F
Dewpoint
3°C
37°F
Humidity 11%
Altimeter 29.73" Hg
Sea Level Pressure 1,007 mb
Field Elevation
288 m
945 ft
None Recorded
-
-

CheckWX.com is intended as a tool to help pilots better visualize weather data. It is not intended as a substitute for an official weather briefing obtained from a Flight Service Station. CheckWX.com does not meet the FAA requirements for an official pre-flight weather briefing. Therefore, it's important that pilots still call and obtain an official FSS pre-flight weather briefing.

© 2007-2015 CheckWX.com
10:05:54 UTC